Birmingham-Shuttlesworth International Airport Birmingham US
ICAO: KBHM
IATA: BHM
Category: Large
Scheduled Services: Yes

Elevation: 650 ft
TransAlt. 18000 ft.

Airport Communications:
APP/DEP:123.8
ATIS:119.4
CLNC DEL:125.675
GND:121.7
ARNG OPS:38.7
ANG COMD POST:28.73
ANNISTON RDO:122.2
TWR:119.9
UNICOM:122.95

KBHM Zoom In..

Runways:

(A) RW 06 length 11998 ft width 150 ft
ILS 110.30 / hdg 58

(B) RW 18 length 7099 ft width 150 ft
LOC 111.30 / hdg 183

(C) RW 24 length 11998 ft width 150 ft
ILS 109.50 / hdg 238

(D) RW 36 length 7099 ft width 150 ft
LOC 111.30 / hdg 3

Location; KBHM
Day. 19 / Time. 20.53 Zulu
* Altimeter: 30.22
* Temperature: 16° c. 60.8°f.
* Wind from: 360° Speed 12 kn with Gusts up to 19 kn.
Dewpoint: 03° c.
Visibility: 10 Statute Miles.
Clouds: Few 5500 ft.

KBHM 192053Z 36012G19KT 10SM FEW055 16/03 A3022 RMK AO2 PK WND 33026/2036 SLP229 T01610028 53004


Wind From 360°
Speed 12 kn.

  YouTube Music Video
 
jpsmedia.com for Web Design  worldairports.se 2018   terms of use